createdAt,value
2023-05-22T00:01:19.360Z,18.50
2023-05-22T00:03:48.894Z,18.50
2023-05-22T00:06:15.939Z,18.50
2023-05-22T00:08:43.125Z,18.50
2023-05-22T00:11:10.047Z,18.50
2023-05-22T00:13:37.335Z,18.50
2023-05-22T00:16:04.551Z,18.50
2023-05-22T00:18:31.722Z,18.50
2023-05-22T00:20:59.813Z,18.50
2023-05-22T00:23:28.495Z,18.50
2023-05-22T00:25:55.348Z,18.50
2023-05-22T00:28:22.518Z,18.40
2023-05-22T00:30:49.327Z,18.40
2023-05-22T00:33:16.604Z,18.40
2023-05-22T00:35:43.625Z,18.40
2023-05-22T00:38:28.274Z,18.50
2023-05-22T00:40:55.123Z,18.50
2023-05-22T00:43:22.200Z,18.50
2023-05-22T00:45:49.038Z,18.60
2023-05-22T00:48:16.222Z,18.60
2023-05-22T00:50:43.039Z,18.60
2023-05-22T00:53:11.958Z,18.60
2023-05-22T00:55:39.113Z,18.50
2023-05-22T00:58:08.574Z,18.60
2023-05-22T01:00:36.973Z,18.50
2023-05-22T01:03:05.666Z,18.50
2023-05-22T01:05:33.019Z,18.50
2023-05-22T01:07:59.987Z,18.40
2023-05-22T01:10:29.324Z,18.40
2023-05-22T01:13:03.646Z,18.30
2023-05-22T01:15:37.422Z,18.30
2023-05-22T01:18:12.460Z,18.30
2023-05-22T01:20:44.788Z,18.30
2023-05-22T01:23:49.894Z,18.20
2023-05-22T01:26:43.632Z,18.20
2023-05-22T01:29:34.852Z,18.20
2023-05-22T01:32:06.469Z,18.10
2023-05-22T01:34:36.572Z,18.10
2023-05-22T01:37:05.051Z,18.10
2023-05-22T01:39:33.027Z,18.00
2023-05-22T01:42:00.264Z,18.00
2023-05-22T01:44:27.524Z,17.90
2023-05-22T01:46:54.355Z,18.00
2023-05-22T01:49:22.835Z,18.00
2023-05-22T01:51:53.606Z,18.00
2023-05-22T01:54:28.454Z,18.00
2023-05-22T01:57:02.730Z,18.00
2023-05-22T01:59:37.767Z,18.00
2023-05-22T02:02:07.887Z,17.90
2023-05-22T02:04:40.126Z,18.00
2023-05-22T02:07:10.755Z,17.90
2023-05-22T02:09:40.832Z,18.00
2023-05-22T02:12:08.952Z,17.80
2023-05-22T02:14:37.117Z,17.80
2023-05-22T02:17:05.771Z,17.80
2023-05-22T02:19:36.655Z,17.80
2023-05-22T02:22:03.712Z,17.80
2023-05-22T02:24:31.319Z,17.80
2023-05-22T02:26:58.332Z,17.80
2023-05-22T02:29:25.607Z,17.80
2023-05-22T02:31:54.500Z,17.80
2023-05-22T02:34:21.737Z,17.80
2023-05-22T02:36:50.973Z,17.80
2023-05-22T02:39:18.406Z,17.80
2023-05-22T02:41:45.849Z,17.80
2023-05-22T02:44:12.995Z,17.70
2023-05-22T02:46:39.887Z,17.70
2023-05-22T02:49:07.158Z,17.60
2023-05-22T02:51:34.209Z,17.60
2023-05-22T02:54:02.799Z,17.50
2023-05-22T02:56:29.843Z,17.50
2023-05-22T02:58:59.864Z,17.40
2023-05-22T03:01:26.854Z,17.40
2023-05-22T03:03:55.284Z,17.30
2023-05-22T03:06:23.174Z,17.30
2023-05-22T03:08:50.386Z,17.20
2023-05-22T03:11:18.642Z,17.20
2023-05-22T03:13:45.787Z,17.10
2023-05-22T03:16:12.755Z,17.10
2023-05-22T03:18:39.982Z,17.00
2023-05-22T03:21:06.818Z,16.90
2023-05-22T03:23:34.051Z,16.90
2023-05-22T03:26:01.009Z,16.90
2023-05-22T03:28:29.729Z,16.90
2023-05-22T03:30:56.647Z,16.90
2023-05-22T03:33:23.936Z,16.90
2023-05-22T03:35:50.916Z,16.90
2023-05-22T03:38:18.074Z,16.90
2023-05-22T03:40:44.917Z,16.90
2023-05-22T03:43:11.889Z,17.00
2023-05-22T03:45:40.133Z,16.90
2023-05-22T03:48:07.497Z,17.00
2023-05-22T03:50:34.377Z,16.90
2023-05-22T03:53:01.774Z,17.00
2023-05-22T03:55:30.773Z,17.00
2023-05-22T03:57:57.787Z,17.00
2023-05-22T04:00:26.376Z,17.00
2023-05-22T04:02:59.072Z,17.10
2023-05-22T04:05:26.279Z,17.10
2023-05-22T04:07:53.599Z,17.10
2023-05-22T04:10:23.325Z,17.10
2023-05-22T04:12:50.975Z,17.30
2023-05-22T04:15:17.880Z,17.10
2023-05-22T04:17:44.954Z,17.20
2023-05-22T04:20:14.086Z,17.20
2023-05-22T04:22:41.737Z,17.30
2023-05-22T04:25:09.023Z,17.30
2023-05-22T04:27:36.231Z,17.30
2023-05-22T04:30:03.962Z,17.40
2023-05-22T04:32:31.226Z,17.50
2023-05-22T04:35:00.435Z,17.50
2023-05-22T04:37:29.154Z,17.50
2023-05-22T04:39:58.203Z,17.50
2023-05-22T04:42:25.686Z,17.60
2023-05-22T04:44:53.116Z,17.70
2023-05-22T04:47:20.516Z,17.70
2023-05-22T04:49:47.404Z,17.80
2023-05-22T04:52:14.616Z,17.90
2023-05-22T04:54:44.556Z,17.90
2023-05-22T04:57:11.917Z,18.00
2023-05-22T04:59:39.199Z,18.10
2023-05-22T05:02:06.383Z,18.20
2023-05-22T05:04:33.582Z,18.30
2023-05-22T05:07:00.811Z,18.40
2023-05-22T05:09:27.687Z,18.50
2023-05-22T05:11:56.025Z,18.50
2023-05-22T05:14:22.974Z,18.60
2023-05-22T05:16:52.113Z,18.60
2023-05-22T05:19:21.446Z,18.70
2023-05-22T05:21:49.890Z,18.80
2023-05-22T05:24:20.199Z,18.80
2023-05-22T05:26:47.626Z,18.90
2023-05-22T05:29:15.924Z,18.90
2023-05-22T05:31:43.349Z,19.00
2023-05-22T05:34:10.254Z,19.00
2023-05-22T05:36:37.541Z,19.00
2023-05-22T05:39:04.522Z,19.10
2023-05-22T05:41:31.694Z,19.10
2023-05-22T05:44:00.125Z,19.20
2023-05-22T05:46:28.977Z,19.30
2023-05-22T05:48:55.988Z,19.50
2023-05-22T05:51:23.126Z,19.50
2023-05-22T05:53:50.245Z,19.60
2023-05-22T05:56:17.411Z,19.70
2023-05-22T05:58:44.598Z,19.80
2023-05-22T06:01:12.114Z,20.00
2023-05-22T06:03:40.489Z,20.10
2023-05-22T06:06:08.045Z,20.20
2023-05-22T06:08:35.009Z,20.30
2023-05-22T06:11:02.697Z,20.40
2023-05-22T06:13:29.558Z,20.50
2023-05-22T06:15:58.684Z,20.50
2023-05-22T06:18:27.466Z,20.60
2023-05-22T06:20:57.715Z,20.50
2023-05-22T06:23:24.757Z,20.50
2023-05-22T06:25:52.034Z,20.40
2023-05-22T06:28:18.913Z,20.40
2023-05-22T06:30:46.238Z,20.30
2023-05-22T06:33:14.472Z,20.20
2023-05-22T06:35:42.391Z,20.20
2023-05-22T06:38:10.633Z,20.20
2023-05-22T06:40:38.126Z,20.20
2023-05-22T06:43:05.195Z,20.20
2023-05-22T06:45:32.125Z,20.20
2023-05-22T06:47:59.350Z,20.30
2023-05-22T06:50:26.221Z,20.30
2023-05-22T06:52:53.433Z,20.40
2023-05-22T06:55:21.832Z,20.40
2023-05-22T06:57:49.118Z,20.50
2023-05-22T07:00:20.943Z,20.50
2023-05-22T07:02:49.251Z,20.50
2023-05-22T07:05:16.266Z,20.70
2023-05-22T07:07:43.502Z,20.70
2023-05-22T07:10:11.222Z,20.80
2023-05-22T07:12:39.393Z,20.90
2023-05-22T07:15:10.914Z,21.10
2023-05-22T07:17:38.509Z,21.30
2023-05-22T07:20:06.844Z,21.40
2023-05-22T07:22:33.987Z,21.50
2023-05-22T07:25:01.203Z,21.50
2023-05-22T07:27:28.351Z,21.40
2023-05-22T07:29:56.700Z,21.40
2023-05-22T07:32:23.852Z,21.30
2023-05-22T07:34:50.889Z,21.20
2023-05-22T07:37:18.767Z,21.20
2023-05-22T07:39:46.803Z,21.30
2023-05-22T07:42:16.441Z,21.40
2023-05-22T07:44:43.389Z,21.50
2023-05-22T07:47:12.429Z,21.50
2023-05-22T07:49:39.306Z,21.70
2023-05-22T07:52:07.270Z,21.70
2023-05-22T07:54:34.185Z,21.70
2023-05-22T07:57:04.035Z,21.80
2023-05-22T07:59:30.935Z,21.90
2023-05-22T08:01:58.483Z,22.00
2023-05-22T08:04:27.481Z,22.10
2023-05-22T08:06:54.425Z,22.00
2023-05-22T08:09:21.614Z,22.10
2023-05-22T08:11:49.102Z,22.00
2023-05-22T08:14:16.120Z,21.90
2023-05-22T08:16:43.412Z,21.80
2023-05-22T08:19:10.458Z,21.70
2023-05-22T08:21:40.019Z,21.70
2023-05-22T08:24:08.468Z,21.80
2023-05-22T08:26:35.698Z,21.90
2023-05-22T08:29:02.645Z,22.00
2023-05-22T08:31:29.721Z,22.10
2023-05-22T08:34:02.490Z,22.30
2023-05-22T08:36:31.524Z,22.30
2023-05-22T08:39:00.160Z,22.40
2023-05-22T08:41:27.278Z,22.60
2023-05-22T08:43:54.545Z,22.60
2023-05-22T08:46:26.207Z,22.70
2023-05-22T08:48:57.471Z,22.80
2023-05-22T08:51:29.177Z,23.00
2023-05-22T08:53:57.001Z,23.10
2023-05-22T08:56:27.867Z,23.20
2023-05-22T08:58:57.393Z,23.30
2023-05-22T09:01:24.868Z,23.40
2023-05-22T09:03:52.123Z,23.50
2023-05-22T09:06:19.034Z,23.50
2023-05-22T09:08:46.421Z,23.50
2023-05-22T09:11:13.394Z,23.40
2023-05-22T09:13:42.058Z,23.50
2023-05-22T09:16:10.179Z,23.60
2023-05-22T09:18:38.317Z,23.60
2023-05-22T09:21:11.408Z,23.80
2023-05-22T09:23:49.934Z,23.80
2023-05-22T09:26:16.854Z,23.90
2023-05-22T09:28:47.454Z,24.00
2023-05-22T09:31:14.943Z,24.10
2023-05-22T09:33:44.018Z,24.10
2023-05-22T09:36:11.455Z,24.20
2023-05-22T09:38:39.149Z,24.30
2023-05-22T09:41:06.415Z,24.30
2023-05-22T09:43:34.256Z,24.40
2023-05-22T09:46:06.249Z,24.50
2023-05-22T09:48:36.550Z,24.50
2023-05-22T09:51:05.087Z,24.70
2023-05-22T09:53:36.106Z,24.80
2023-05-22T09:56:08.347Z,24.80
2023-05-22T09:58:38.772Z,24.80
2023-05-22T10:01:10.481Z,24.80
2023-05-22T10:03:40.094Z,24.80
2023-05-22T10:06:09.158Z,24.70
2023-05-22T10:08:42.312Z,24.70
2023-05-22T10:11:11.013Z,24.70
2023-05-22T10:13:38.488Z,24.70
2023-05-22T10:16:08.090Z,24.80
2023-05-22T10:18:37.991Z,24.80
2023-05-22T10:21:06.344Z,24.90
2023-05-22T10:23:33.245Z,24.90
2023-05-22T10:26:00.410Z,24.90
2023-05-22T10:28:33.694Z,25.10
2023-05-22T10:31:05.605Z,25.40
2023-05-22T10:33:40.149Z,25.50
2023-05-22T10:36:10.274Z,25.60
2023-05-22T10:38:50.870Z,25.80
2023-05-22T10:41:18.507Z,25.80
2023-05-22T10:43:49.296Z,25.90
2023-05-22T10:46:17.023Z,25.80
2023-05-22T10:48:46.719Z,25.80
2023-05-22T10:51:15.569Z,25.90
2023-05-22T10:53:45.334Z,25.90
2023-05-22T10:56:13.975Z,25.80
2023-05-22T10:58:43.975Z,26.00
2023-05-22T11:01:13.541Z,26.20
2023-05-22T11:03:56.500Z,26.30
2023-05-22T11:06:37.839Z,26.40
2023-05-22T11:09:22.035Z,26.30
2023-05-22T11:12:20.276Z,26.40
2023-05-22T11:14:55.516Z,26.40
2023-05-22T11:17:23.971Z,26.40
2023-05-22T11:20:00.716Z,26.50
2023-05-22T11:22:32.451Z,26.70
2023-05-22T11:25:00.317Z,26.90
2023-05-22T11:27:28.157Z,27.20
2023-05-22T11:29:56.255Z,27.40
2023-05-22T11:32:24.787Z,27.60
2023-05-22T11:34:51.782Z,27.90
2023-05-22T11:37:21.854Z,28.10
2023-05-22T11:39:55.932Z,28.50
2023-05-22T11:42:23.429Z,28.80
2023-05-22T11:44:50.617Z,29.20
2023-05-22T11:47:18.100Z,29.50
2023-05-22T11:49:45.113Z,29.80
2023-05-22T11:52:12.475Z,29.90
2023-05-22T11:54:40.682Z,29.80
2023-05-22T11:57:08.786Z,30.00
2023-05-22T11:59:36.142Z,30.50
2023-05-22T12:02:03.578Z,30.90
2023-05-22T12:04:30.678Z,30.90
2023-05-22T12:06:58.121Z,31.20
2023-05-22T12:09:27.837Z,31.30
2023-05-22T12:11:58.177Z,31.70
2023-05-22T12:14:26.819Z,32.20
2023-05-22T12:16:54.409Z,32.50
2023-05-22T12:19:21.928Z,32.50
2023-05-22T12:21:50.926Z,32.50
2023-05-22T12:24:23.253Z,32.40
2023-05-22T12:26:51.455Z,32.00
2023-05-22T12:29:22.152Z,31.80
2023-05-22T12:31:50.009Z,31.80
2023-05-22T12:34:19.063Z,31.70
2023-05-22T12:36:47.315Z,31.80
2023-05-22T12:39:17.742Z,32.10
2023-05-22T12:41:46.305Z,32.40
2023-05-22T12:44:14.824Z,33.00
2023-05-22T12:46:43.513Z,33.10
2023-05-22T12:49:11.310Z,33.00
2023-05-22T12:51:38.573Z,32.90
2023-05-22T12:54:05.695Z,32.90
2023-05-22T12:56:32.986Z,32.80
2023-05-22T12:59:00.178Z,33.30
2023-05-22T13:01:27.563Z,33.80
2023-05-22T13:03:55.827Z,33.90
2023-05-22T13:06:23.155Z,34.00
2023-05-22T13:08:50.036Z,33.80
2023-05-22T13:11:17.534Z,34.20
2023-05-22T13:13:44.389Z,34.80
2023-05-22T13:16:11.744Z,34.70
2023-05-22T13:18:38.668Z,34.00
2023-05-22T13:21:07.442Z,33.90
2023-05-22T13:23:34.380Z,33.50
2023-05-22T13:26:02.478Z,32.90
2023-05-22T13:28:29.440Z,32.30
2023-05-22T13:30:56.843Z,32.10
2023-05-22T13:33:24.540Z,31.70
2023-05-22T13:35:51.895Z,31.50
2023-05-22T13:38:20.228Z,32.20
2023-05-22T13:40:48.670Z,32.70
2023-05-22T13:43:16.003Z,33.40
2023-05-22T13:45:43.263Z,33.40
2023-05-22T13:48:10.451Z,33.50
2023-05-22T13:50:37.628Z,33.30
2023-05-22T13:53:04.541Z,32.80
2023-05-22T13:55:33.113Z,32.60
2023-05-22T13:57:59.942Z,32.70
2023-05-22T14:00:27.268Z,32.50
2023-05-22T14:02:54.250Z,31.90
2023-05-22T14:05:21.697Z,32.00
2023-05-22T14:07:48.548Z,32.00
2023-05-22T14:10:16.024Z,32.00
2023-05-22T14:12:44.231Z,32.50
2023-05-22T14:15:11.979Z,32.90
2023-05-22T14:17:38.895Z,33.00
2023-05-22T14:20:07.444Z,33.30
2023-05-22T14:22:44.475Z,33.80
2023-05-22T14:25:11.857Z,33.90
2023-05-22T14:27:38.738Z,34.20
2023-05-22T14:30:15.731Z,34.50
2023-05-22T14:32:43.393Z,34.60
2023-05-22T14:35:10.661Z,35.00
2023-05-22T14:37:37.618Z,35.00
2023-05-22T14:40:05.635Z,34.90
2023-05-22T14:42:32.515Z,35.00
2023-05-22T14:45:00.002Z,35.20
2023-05-22T14:47:28.299Z,35.00
2023-05-22T14:49:57.748Z,34.50
2023-05-22T14:52:33.464Z,34.40
2023-05-22T14:55:00.659Z,34.20
2023-05-22T14:57:27.454Z,33.90
2023-05-22T14:59:54.616Z,33.50
2023-05-22T15:02:22.521Z,33.40
2023-05-22T15:04:52.848Z,33.00
2023-05-22T15:07:22.366Z,32.30
2023-05-22T15:09:49.478Z,31.30
2023-05-22T15:12:16.297Z,30.70
2023-05-22T15:14:44.872Z,30.10
2023-05-22T15:17:12.001Z,29.30
2023-05-22T15:19:38.953Z,29.10
2023-05-22T15:22:19.397Z,28.90
2023-05-22T15:24:48.402Z,28.80
2023-05-22T15:27:15.889Z,28.50
2023-05-22T15:29:43.114Z,28.20
2023-05-22T15:32:10.156Z,28.10
2023-05-22T15:34:37.358Z,27.90
2023-05-22T15:37:04.485Z,27.90
2023-05-22T15:39:33.000Z,27.70
2023-05-22T15:42:06.529Z,27.70
2023-05-22T15:44:34.256Z,27.50
2023-05-22T15:47:01.236Z,27.30
2023-05-22T15:49:31.092Z,27.20
2023-05-22T15:51:58.682Z,27.10
2023-05-22T15:54:26.152Z,27.00
2023-05-22T15:56:54.333Z,27.10
2023-05-22T15:59:21.531Z,27.00
2023-05-22T16:01:48.561Z,27.00
2023-05-22T16:04:16.439Z,26.90
2023-05-22T16:06:43.285Z,26.80
2023-05-22T16:09:10.519Z,26.70
2023-05-22T16:11:37.831Z,26.70
2023-05-22T16:14:06.395Z,26.60
2023-05-22T16:16:33.269Z,26.60
2023-05-22T16:19:00.422Z,26.60
2023-05-22T16:21:27.460Z,26.40
2023-05-22T16:23:54.641Z,26.40
2023-05-22T16:26:21.790Z,26.50
2023-05-22T16:28:48.640Z,26.20
2023-05-22T16:31:19.314Z,26.10
2023-05-22T16:33:46.878Z,26.10
2023-05-22T16:36:13.990Z,26.00
2023-05-22T16:38:42.216Z,26.00
2023-05-22T16:41:09.137Z,25.90
2023-05-22T16:43:37.720Z,25.90
2023-05-22T16:46:04.758Z,25.80
2023-05-22T16:48:33.040Z,25.80
2023-05-22T16:50:59.950Z,25.80
2023-05-22T16:53:27.238Z,25.70
2023-05-22T16:55:54.377Z,25.70
2023-05-22T16:58:22.066Z,25.60
2023-05-22T17:00:49.098Z,25.60
2023-05-22T17:03:16.865Z,25.50
2023-05-22T17:05:47.281Z,25.50
2023-05-22T17:08:14.612Z,25.50
2023-05-22T17:10:41.715Z,25.50
2023-05-22T17:13:09.180Z,25.40
2023-05-22T17:15:36.041Z,25.40
2023-05-22T17:18:04.255Z,25.40
2023-05-22T17:20:34.049Z,25.30
2023-05-22T17:23:02.700Z,25.30
2023-05-22T17:25:29.556Z,25.20
2023-05-22T17:27:56.749Z,25.20
2023-05-22T17:30:23.874Z,25.00
2023-05-22T17:32:53.328Z,25.10
2023-05-22T17:35:20.336Z,25.00
2023-05-22T17:37:47.208Z,25.00
2023-05-22T17:40:15.648Z,24.90
2023-05-22T17:42:42.682Z,24.90
2023-05-22T17:45:10.477Z,24.90
2023-05-22T17:47:37.402Z,24.80
2023-05-22T17:50:04.949Z,24.80
2023-05-22T17:52:31.956Z,24.80
2023-05-22T17:54:59.207Z,24.70
2023-05-22T17:57:27.687Z,24.70
2023-05-22T17:59:54.784Z,24.70
2023-05-22T18:02:21.682Z,24.70
2023-05-22T18:04:49.104Z,24.60
2023-05-22T18:07:17.126Z,24.60
2023-05-22T18:09:44.502Z,24.60
2023-05-22T18:12:30.143Z,24.50
2023-05-22T18:14:59.682Z,24.60
2023-05-22T18:17:26.782Z,24.60
2023-05-22T18:19:54.112Z,24.40
2023-05-22T18:22:21.862Z,24.20
2023-05-22T18:24:48.795Z,24.00
2023-05-22T18:27:15.622Z,23.80
2023-05-22T18:29:43.036Z,23.70
2023-05-22T18:32:13.493Z,23.70
2023-05-22T18:34:40.769Z,23.60
2023-05-22T18:37:07.755Z,23.30
2023-05-22T18:39:34.750Z,23.00
2023-05-22T18:42:01.599Z,22.80
2023-05-22T18:44:28.848Z,22.60
2023-05-22T18:46:55.770Z,22.40
2023-05-22T18:49:24.508Z,22.30
2023-05-22T18:51:51.386Z,22.20
2023-05-22T18:54:18.864Z,21.80
2023-05-22T18:56:45.947Z,21.60
2023-05-22T18:59:13.232Z,21.50
2023-05-22T19:01:40.302Z,21.40
2023-05-22T19:04:08.102Z,21.20
2023-05-22T19:06:36.734Z,21.10
2023-05-22T19:09:04.907Z,21.10
2023-05-22T19:11:31.849Z,21.10
2023-05-22T19:14:00.067Z,21.10
2023-05-22T19:16:26.950Z,21.10
2023-05-22T19:18:53.994Z,20.80
2023-05-22T19:21:20.919Z,20.30
2023-05-22T19:23:49.421Z,20.20
2023-05-22T19:26:16.333Z,20.20
2023-05-22T19:28:43.393Z,20.20
2023-05-22T19:31:10.452Z,20.20
2023-05-22T19:33:37.452Z,20.20
2023-05-22T19:36:06.561Z,20.20
2023-05-22T19:38:34.061Z,20.10
2023-05-22T19:41:02.402Z,20.10
2023-05-22T19:43:31.448Z,20.10
2023-05-22T19:45:58.450Z,20.10
2023-05-22T19:48:25.725Z,20.10
2023-05-22T19:50:52.862Z,20.00
2023-05-22T19:53:19.811Z,20.00
2023-05-22T19:55:47.448Z,19.90
2023-05-22T19:58:16.131Z,20.10
2023-05-22T20:00:43.302Z,19.90
2023-05-22T20:03:10.527Z,19.90
2023-05-22T20:05:37.859Z,20.00
2023-05-22T20:08:05.048Z,20.00
2023-05-22T20:10:33.316Z,20.00
2023-05-22T20:13:00.355Z,20.00
2023-05-22T20:15:30.451Z,19.90
2023-05-22T20:17:58.302Z,20.00
2023-05-22T20:20:25.232Z,20.00
2023-05-22T20:22:54.109Z,20.00
2023-05-22T20:25:21.541Z,20.00
2023-05-22T20:27:48.840Z,20.00
2023-05-22T20:30:16.063Z,19.80
2023-05-22T20:32:47.068Z,19.80
2023-05-22T20:35:14.074Z,19.80
2023-05-22T20:37:41.605Z,19.60
2023-05-22T20:40:09.588Z,19.50
2023-05-22T20:42:37.539Z,19.50
2023-05-22T20:45:05.593Z,19.50
2023-05-22T20:47:33.922Z,19.40
2023-05-22T20:50:02.287Z,19.30
2023-05-22T20:52:31.845Z,19.20
2023-05-22T20:54:59.157Z,19.20
2023-05-22T20:57:26.435Z,19.30
2023-05-22T20:59:53.989Z,19.30
2023-05-22T21:02:21.389Z,19.30
2023-05-22T21:04:48.244Z,19.30
2023-05-22T21:07:16.896Z,19.30
2023-05-22T21:09:43.851Z,19.20
2023-05-22T21:12:11.193Z,19.10
2023-05-22T21:14:37.991Z,19.10
2023-05-22T21:17:05.564Z,19.10
2023-05-22T21:19:32.501Z,19.10
2023-05-22T21:21:59.732Z,19.10
2023-05-22T21:24:28.245Z,19.10
2023-05-22T21:26:55.114Z,19.20
2023-05-22T21:29:21.953Z,19.20
2023-05-22T21:31:49.200Z,19.20
2023-05-22T21:34:16.172Z,19.20
2023-05-22T21:36:43.535Z,19.20
2023-05-22T21:39:10.703Z,19.10
2023-05-22T21:41:39.290Z,19.10
2023-05-22T21:44:06.169Z,19.00
2023-05-22T21:46:33.405Z,18.90
2023-05-22T21:49:02.845Z,18.80
2023-05-22T21:51:30.059Z,18.80
2023-05-22T21:53:56.865Z,18.70
2023-05-22T21:56:24.050Z,18.70
2023-05-22T21:58:52.185Z,18.80
2023-05-22T22:01:19.512Z,18.80
2023-05-22T22:03:46.645Z,18.80
2023-05-22T22:06:13.873Z,18.80
2023-05-22T22:08:40.821Z,18.80
2023-05-22T22:11:08.072Z,18.70
2023-05-22T22:13:34.957Z,18.70
2023-05-22T22:16:03.770Z,18.90
2023-05-22T22:18:33.577Z,18.80
2023-05-22T22:21:02.593Z,18.70
2023-05-22T22:23:29.574Z,18.70
2023-05-22T22:25:56.972Z,18.60
2023-05-22T22:28:23.833Z,18.50
2023-05-22T22:30:50.872Z,18.50
2023-05-22T22:33:19.039Z,18.50
2023-05-22T22:35:46.232Z,18.50
2023-05-22T22:38:13.055Z,18.50
2023-05-22T22:40:40.351Z,18.50
2023-05-22T22:43:07.238Z,18.60
2023-05-22T22:45:34.427Z,18.50
2023-05-22T22:48:01.346Z,18.50
2023-05-22T22:50:30.081Z,18.60
2023-05-22T22:52:56.879Z,18.60
2023-05-22T22:55:24.469Z,18.60
2023-05-22T22:57:51.554Z,18.50
2023-05-22T23:00:19.289Z,18.50
2023-05-22T23:02:46.775Z,18.40
2023-05-22T23:05:15.730Z,18.40
2023-05-22T23:07:44.350Z,18.40
2023-05-22T23:10:11.374Z,18.40
2023-05-22T23:12:38.509Z,18.40
2023-05-22T23:15:06.835Z,18.40
2023-05-22T23:17:33.982Z,18.40
2023-05-22T23:20:01.306Z,18.40
2023-05-22T23:22:28.111Z,18.40
2023-05-22T23:24:56.653Z,18.20
2023-05-22T23:27:23.439Z,18.10
2023-05-22T23:29:50.276Z,18.10
2023-05-22T23:32:17.362Z,18.10
2023-05-22T23:34:44.358Z,18.00
2023-05-22T23:37:11.540Z,18.00
2023-05-22T23:39:38.547Z,17.90
2023-05-22T23:42:09.762Z,17.90
2023-05-22T23:44:37.207Z,17.80
2023-05-22T23:47:04.541Z,17.80
2023-05-22T23:49:31.518Z,17.80
2023-05-22T23:51:58.677Z,17.80
2023-05-22T23:54:25.655Z,17.80
2023-05-22T23:56:52.559Z,17.80
2023-05-22T23:59:21.139Z,17.80
